sensor_id;sensor_type;location;lat;lon;timestamp;temperature;humidity
68189;DHT22;66299;47.514;19.218;2023-06-22T05:38:09;22.27;91.56
68189;DHT22;66299;47.514;19.218;2023-06-22T05:40:38;22.29;91.57
68189;DHT22;66299;47.514;19.218;2023-06-22T05:43:06;22.42;92.38
68189;DHT22;66299;47.514;19.218;2023-06-22T05:45:34;22.42;91.91
68189;DHT22;66299;47.514;19.218;2023-06-22T05:48:03;22.39;91.11
68189;DHT22;66299;47.514;19.218;2023-06-22T05:50:32;22.52;90.48
68189;DHT22;66299;47.514;19.218;2023-06-22T05:53:00;22.63;90.49
68189;DHT22;66299;47.514;19.218;2023-06-22T05:55:30;22.87;89.79
68189;DHT22;66299;47.514;19.218;2023-06-22T05:58:01;22.94;88.88
68189;DHT22;66299;47.514;19.218;2023-06-22T06:00:30;23.08;88.70
68189;DHT22;66299;47.514;19.218;2023-06-22T06:02:59;23.10;88.19
68189;DHT22;66299;47.514;19.218;2023-06-22T06:05:31;23.14;87.82
68189;DHT22;66299;47.514;19.218;2023-06-22T06:08:00;23.23;87.53
68189;DHT22;66299;47.514;19.218;2023-06-22T06:10:31;23.42;87.84
68189;DHT22;66299;47.514;19.218;2023-06-22T06:13:00;23.57;87.54
68189;DHT22;66299;47.514;19.218;2023-06-22T06:15:31;23.65;87.71
68189;DHT22;66299;47.514;19.218;2023-06-22T06:18:00;23.71;87.43
68189;DHT22;66299;47.514;19.218;2023-06-22T06:20:31;23.88;87.12
68189;DHT22;66299;47.514;19.218;2023-06-22T06:23:00;23.95;87.89
68189;DHT22;66299;47.514;19.218;2023-06-22T06:25:31;24.06;86.63
68189;DHT22;66299;47.514;19.218;2023-06-22T06:28:00;24.14;85.90
68189;DHT22;66299;47.514;19.218;2023-06-22T06:30:34;24.31;85.18
68189;DHT22;66299;47.514;19.218;2023-06-22T06:33:04;24.37;85.41
68189;DHT22;66299;47.514;19.218;2023-06-22T06:35:37;24.47;85.85
68189;DHT22;66299;47.514;19.218;2023-06-22T06:38:06;24.43;86.65
68189;DHT22;66299;47.514;19.218;2023-06-22T06:40:36;24.58;84.85
68189;DHT22;66299;47.514;19.218;2023-06-22T06:43:06;24.50;84.42
68189;DHT22;66299;47.514;19.218;2023-06-22T06:45:38;24.72;84.07
68189;DHT22;66299;47.514;19.218;2023-06-22T06:48:08;24.88;84.61
68189;DHT22;66299;47.514;19.218;2023-06-22T06:50:40;24.92;84.20
68189;DHT22;66299;47.514;19.218;2023-06-22T06:53:11;24.91;85.57
68189;DHT22;66299;47.514;19.218;2023-06-22T06:55:43;25.18;83.09
68189;DHT22;66299;47.514;19.218;2023-06-22T06:58:13;25.16;81.49
68189;DHT22;66299;47.514;19.218;2023-06-22T07:00:42;25.20;78.82
68189;DHT22;66299;47.514;19.218;2023-06-22T07:03:12;25.49;79.08
68189;DHT22;66299;47.514;19.218;2023-06-22T07:05:40;25.50;77.38
68189;DHT22;66299;47.514;19.218;2023-06-22T07:08:09;25.40;77.53
68189;DHT22;66299;47.514;19.218;2023-06-22T07:10:37;25.54;79.71
68189;DHT22;66299;47.514;19.218;2023-06-22T07:13:07;25.56;78.45
68189;DHT22;66299;47.514;19.218;2023-06-22T07:15:35;25.56;76.78
68189;DHT22;66299;47.514;19.218;2023-06-22T07:18:03;25.63;73.25
68189;DHT22;66299;47.514;19.218;2023-06-22T07:20:32;25.92;73.98
68189;DHT22;66299;47.514;19.218;2023-06-22T07:23:00;26.11;71.28
68189;DHT22;66299;47.514;19.218;2023-06-22T07:25:28;26.22;70.10
68189;DHT22;66299;47.514;19.218;2023-06-22T07:27:59;26.05;71.12
68189;DHT22;66299;47.514;19.218;2023-06-22T07:30:30;26.31;71.50
68189;DHT22;66299;47.514;19.218;2023-06-22T07:32:59;26.52;68.10
68189;DHT22;66299;47.514;19.218;2023-06-22T07:35:32;26.46;68.35
68189;DHT22;66299;47.514;19.218;2023-06-22T07:38:01;26.69;68.14
68189;DHT22;66299;47.514;19.218;2023-06-22T07:40:32;26.86;69.95
68189;DHT22;66299;47.514;19.218;2023-06-22T07:43:02;26.76;69.01
68189;DHT22;66299;47.514;19.218;2023-06-22T07:45:32;26.98;70.10
68189;DHT22;66299;47.514;19.218;2023-06-22T07:48:02;27.17;70.25
68189;DHT22;66299;47.514;19.218;2023-06-22T07:50:31;27.34;68.03
68189;DHT22;66299;47.514;19.218;2023-06-22T07:52:59;27.35;69.95
68189;DHT22;66299;47.514;19.218;2023-06-22T07:55:28;27.54;70.69
68189;DHT22;66299;47.514;19.218;2023-06-22T07:57:56;27.58;68.46
68189;DHT22;66299;47.514;19.218;2023-06-22T08:00:25;27.61;68.79
68189;DHT22;66299;47.514;19.218;2023-06-22T08:02:55;27.58;66.37
68189;DHT22;66299;47.514;19.218;2023-06-22T08:05:24;27.25;64.24
68189;DHT22;66299;47.514;19.218;2023-06-22T08:07:52;26.86;64.83
68189;DHT22;66299;47.514;19.218;2023-06-22T08:10:22;27.31;64.31
68189;DHT22;66299;47.514;19.218;2023-06-22T08:12:50;27.48;65.96
68189;DHT22;66299;47.514;19.218;2023-06-22T08:15:19;27.44;64.12
68189;DHT22;66299;47.514;19.218;2023-06-22T08:21:02;27.92;64.32
68189;DHT22;66299;47.514;19.218;2023-06-22T08:23:32;27.55;63.15
68189;DHT22;66299;47.514;19.218;2023-06-22T08:26:00;27.82;63.69
68189;DHT22;66299;47.514;19.218;2023-06-22T08:28:29;28.18;65.06
68189;DHT22;66299;47.514;19.218;2023-06-22T08:31:02;28.20;63.28
68189;DHT22;66299;47.514;19.218;2023-06-22T08:33:33;28.03;63.29
68189;DHT22;66299;47.514;19.218;2023-06-22T08:36:03;28.41;64.28
68189;DHT22;66299;47.514;19.218;2023-06-22T08:38:33;28.44;63.24
68189;DHT22;66299;47.514;19.218;2023-06-22T08:41:02;28.71;65.04
68189;DHT22;66299;47.514;19.218;2023-06-22T08:43:30;29.00;61.92
68189;DHT22;66299;47.514;19.218;2023-06-22T08:45:59;28.28;61.48
68189;DHT22;66299;47.514;19.218;2023-06-22T08:48:29;28.55;61.86
68189;DHT22;66299;47.514;19.218;2023-06-22T08:51:04;28.95;64.34
68189;DHT22;66299;47.514;19.218;2023-06-22T08:53:33;29.09;63.42
68189;DHT22;66299;47.514;19.218;2023-06-22T08:56:02;29.06;64.97
68189;DHT22;66299;47.514;19.218;2023-06-22T08:58:33;29.40;64.17
68189;DHT22;66299;47.514;19.218;2023-06-22T09:01:02;29.49;65.14
68189;DHT22;66299;47.514;19.218;2023-06-22T09:03:31;28.88;61.47
68189;DHT22;66299;47.514;19.218;2023-06-22T09:06:03;29.42;60.90
68189;DHT22;66299;47.514;19.218;2023-06-22T09:08:35;28.91;60.80
68189;DHT22;66299;47.514;19.218;2023-06-22T09:11:03;28.78;62.52
68189;DHT22;66299;47.514;19.218;2023-06-22T09:13:32;29.50;63.45
68189;DHT22;66299;47.514;19.218;2023-06-22T09:16:01;30.04;61.66
68189;DHT22;66299;47.514;19.218;2023-06-22T09:18:29;29.97;60.49
68189;DHT22;66299;47.514;19.218;2023-06-22T09:20:58;29.34;61.78
68189;DHT22;66299;47.514;19.218;2023-06-22T09:23:28;29.22;62.44
68189;DHT22;66299;47.514;19.218;2023-06-22T09:25:56;29.88;62.38
68189;DHT22;66299;47.514;19.218;2023-06-22T09:28:25;30.08;62.10
68189;DHT22;66299;47.514;19.218;2023-06-22T09:30:54;30.47;63.22
68189;DHT22;66299;47.514;19.218;2023-06-22T09:33:29;30.35;58.77
68189;DHT22;66299;47.514;19.218;2023-06-22T09:35:57;29.40;62.14
68189;DHT22;66299;47.514;19.218;2023-06-22T09:38:28;29.33;61.46
68189;DHT22;66299;47.514;19.218;2023-06-22T09:40:56;30.25;62.91
68189;DHT22;66299;47.514;19.218;2023-06-22T09:43:25;30.50;60.79
68189;DHT22;66299;47.514;19.218;2023-06-22T09:45:53;30.70;61.09
68189;DHT22;66299;47.514;19.218;2023-06-22T09:48:22;30.59;59.08
68189;DHT22;66299;47.514;19.218;2023-06-22T09:50:53;30.52;61.09
68189;DHT22;66299;47.514;19.218;2023-06-22T09:53:21;30.86;61.74
68189;DHT22;66299;47.514;19.218;2023-06-22T09:55:51;30.69;59.95
68189;DHT22;66299;47.514;19.218;2023-06-22T09:58:20;30.28;61.01
68189;DHT22;66299;47.514;19.218;2023-06-22T10:00:49;30.57;59.32
68189;DHT22;66299;47.514;19.218;2023-06-22T10:03:20;30.19;59.90
68189;DHT22;66299;47.514;19.218;2023-06-22T10:05:48;30.70;63.56
68189;DHT22;66299;47.514;19.218;2023-06-22T10:08:17;31.27;60.72
68189;DHT22;66299;47.514;19.218;2023-06-22T10:10:46;31.35;61.38
68189;DHT22;66299;47.514;19.218;2023-06-22T10:13:17;31.04;58.75
68189;DHT22;66299;47.514;19.218;2023-06-22T10:15:45;30.90;59.66
68189;DHT22;66299;47.514;19.218;2023-06-22T10:18:19;30.11;60.90
68189;DHT22;66299;47.514;19.218;2023-06-22T10:20:49;31.14;61.95
68189;DHT22;66299;47.514;19.218;2023-06-22T10:23:18;30.86;60.44
68189;DHT22;66299;47.514;19.218;2023-06-22T10:25:47;31.19;61.57
68189;DHT22;66299;47.514;19.218;2023-06-22T10:28:17;31.31;58.89
68189;DHT22;66299;47.514;19.218;2023-06-22T10:30:45;31.32;58.26
68189;DHT22;66299;47.514;19.218;2023-06-22T10:33:14;31.32;57.84
68189;DHT22;66299;47.514;19.218;2023-06-22T10:35:42;31.55;59.10
68189;DHT22;66299;47.514;19.218;2023-06-22T10:38:11;31.50;58.52
68189;DHT22;66299;47.514;19.218;2023-06-22T10:40:39;31.75;59.48
68189;DHT22;66299;47.514;19.218;2023-06-22T10:43:07;31.86;59.16
68189;DHT22;66299;47.514;19.218;2023-06-22T10:45:37;31.89;59.80
68189;DHT22;66299;47.514;19.218;2023-06-22T10:48:10;31.87;57.20
68189;DHT22;66299;47.514;19.218;2023-06-22T10:50:39;32.24;56.80
68189;DHT22;66299;47.514;19.218;2023-06-22T10:53:07;31.58;59.75
68189;DHT22;66299;47.514;19.218;2023-06-22T10:55:36;32.10;57.01
68189;DHT22;66299;47.514;19.218;2023-06-22T10:58:22;32.24;58.04
68189;DHT22;66299;47.514;19.218;2023-06-22T11:00:53;32.00;58.19
68189;DHT22;66299;47.514;19.218;2023-06-22T11:03:23;32.27;57.85
68189;DHT22;66299;47.514;19.218;2023-06-22T11:05:51;31.66;57.90
68189;DHT22;66299;47.514;19.218;2023-06-22T11:08:20;31.96;59.18
68189;DHT22;66299;47.514;19.218;2023-06-22T11:10:48;32.44;57.75
68189;DHT22;66299;47.514;19.218;2023-06-22T11:13:18;32.99;56.71
68189;DHT22;66299;47.514;19.218;2023-06-22T11:15:47;32.71;58.33
68189;DHT22;66299;47.514;19.218;2023-06-22T11:18:18;33.16;56.99
68189;DHT22;66299;47.514;19.218;2023-06-22T11:20:48;32.95;56.33
68189;DHT22;66299;47.514;19.218;2023-06-22T11:23:20;32.83;56.18
68189;DHT22;66299;47.514;19.218;2023-06-22T11:25:51;32.90;57.31
68189;DHT22;66299;47.514;19.218;2023-06-22T11:28:20;33.10;55.71
68189;DHT22;66299;47.514;19.218;2023-06-22T11:30:48;32.27;56.13
68189;DHT22;66299;47.514;19.218;2023-06-22T11:33:19;31.31;58.52
68189;DHT22;66299;47.514;19.218;2023-06-22T11:35:48;32.45;54.88
68189;DHT22;66299;47.514;19.218;2023-06-22T11:38:16;33.00;55.50
68189;DHT22;66299;47.514;19.218;2023-06-22T11:40:44;33.05;55.08
68189;DHT22;66299;47.514;19.218;2023-06-22T11:43:13;31.14;57.67
68189;DHT22;66299;47.514;19.218;2023-06-22T11:45:41;32.25;56.60
68189;DHT22;66299;47.514;19.218;2023-06-22T11:48:10;32.48;55.54
68189;DHT22;66299;47.514;19.218;2023-06-22T11:50:40;33.02;56.61
68189;DHT22;66299;47.514;19.218;2023-06-22T11:53:08;33.00;55.52
68189;DHT22;66299;47.514;19.218;2023-06-22T11:55:37;32.83;53.79
68189;DHT22;66299;47.514;19.218;2023-06-22T11:58:06;33.25;54.52
68189;DHT22;66299;47.514;19.218;2023-06-22T12:00:35;33.80;53.22
68189;DHT22;66299;47.514;19.218;2023-06-22T12:03:17;33.43;53.75
68189;DHT22;66299;47.514;19.218;2023-06-22T12:05:49;33.56;54.71
68189;DHT22;66299;47.514;19.218;2023-06-22T12:08:21;33.81;53.61
68189;DHT22;66299;47.514;19.218;2023-06-22T12:10:50;33.95;51.71
68189;DHT22;66299;47.514;19.218;2023-06-22T12:13:18;32.78;53.02
68189;DHT22;66299;47.514;19.218;2023-06-22T12:15:47;33.45;52.96
68189;DHT22;66299;47.514;19.218;2023-06-22T12:18:16;33.39;52.05
68189;DHT22;66299;47.514;19.218;2023-06-22T12:20:49;32.82;52.43
68189;DHT22;66299;47.514;19.218;2023-06-22T12:23:18;33.02;53.20
68189;DHT22;66299;47.514;19.218;2023-06-22T12:25:47;34.16;51.74
68189;DHT22;66299;47.514;19.218;2023-06-22T12:28:17;33.51;51.77
68189;DHT22;66299;47.514;19.218;2023-06-22T12:30:49;32.31;53.13
68189;DHT22;66299;47.514;19.218;2023-06-22T12:33:21;33.77;52.92
68189;DHT22;66299;47.514;19.218;2023-06-22T12:35:51;33.75;53.25
68189;DHT22;66299;47.514;19.218;2023-06-22T12:38:21;32.98;50.00
68189;DHT22;66299;47.514;19.218;2023-06-22T12:40:51;33.20;50.42
68189;DHT22;66299;47.514;19.218;2023-06-22T12:43:20;32.30;51.61
68189;DHT22;66299;47.514;19.218;2023-06-22T12:45:51;32.13;52.59
68189;DHT22;66299;47.514;19.218;2023-06-22T12:48:21;32.24;51.53
68189;DHT22;66299;47.514;19.218;2023-06-22T12:50:51;32.28;51.69
68189;DHT22;66299;47.514;19.218;2023-06-22T12:53:21;33.00;53.90
68189;DHT22;66299;47.514;19.218;2023-06-22T12:55:50;32.85;53.33
68189;DHT22;66299;47.514;19.218;2023-06-22T12:58:22;33.06;53.68
68189;DHT22;66299;47.514;19.218;2023-06-22T13:00:51;32.83;54.79
68189;DHT22;66299;47.514;19.218;2023-06-22T13:03:19;33.26;54.79
68189;DHT22;66299;47.514;19.218;2023-06-22T13:05:48;33.13;52.23
68189;DHT22;66299;47.514;19.218;2023-06-22T13:08:18;33.27;52.24
68189;DHT22;66299;47.514;19.218;2023-06-22T13:10:47;33.03;52.88
68189;DHT22;66299;47.514;19.218;2023-06-22T13:13:15;33.29;51.31
68189;DHT22;66299;47.514;19.218;2023-06-22T13:15:44;32.83;53.10
68189;DHT22;66299;47.514;19.218;2023-06-22T13:18:12;33.33;52.80
68189;DHT22;66299;47.514;19.218;2023-06-22T13:20:41;33.63;53.01
68189;DHT22;66299;47.514;19.218;2023-06-22T13:23:12;33.18;53.60
68189;DHT22;66299;47.514;19.218;2023-06-22T13:25:42;33.25;52.36
68189;DHT22;66299;47.514;19.218;2023-06-22T13:28:10;33.60;51.92
68189;DHT22;66299;47.514;19.218;2023-06-22T13:30:54;33.33;53.25
68189;DHT22;66299;47.514;19.218;2023-06-22T13:33:22;33.27;53.51
68189;DHT22;66299;47.514;19.218;2023-06-22T13:35:51;33.47;52.02
68189;DHT22;66299;47.514;19.218;2023-06-22T13:38:22;33.56;52.54
68189;DHT22;66299;47.514;19.218;2023-06-22T13:40:52;33.50;52.62
68189;DHT22;66299;47.514;19.218;2023-06-22T13:43:23;33.23;53.37
68189;DHT22;66299;47.514;19.218;2023-06-22T13:45:52;33.74;51.89
68189;DHT22;66299;47.514;19.218;2023-06-22T13:48:21;33.84;50.39
68189;DHT22;66299;47.514;19.218;2023-06-22T13:50:55;33.37;53.53
68189;DHT22;66299;47.514;19.218;2023-06-22T13:53:25;33.40;54.96
68189;DHT22;66299;47.514;19.218;2023-06-22T13:55:56;33.12;54.44
68189;DHT22;66299;47.514;19.218;2023-06-22T13:58:26;33.09;55.18
68189;DHT22;66299;47.514;19.218;2023-06-22T14:00:55;33.03;54.13
68189;DHT22;66299;47.514;19.218;2023-06-22T14:03:24;33.19;54.62
68189;DHT22;66299;47.514;19.218;2023-06-22T14:05:57;33.33;54.55
68189;DHT22;66299;47.514;19.218;2023-06-22T14:08:28;33.16;52.97
68189;DHT22;66299;47.514;19.218;2023-06-22T14:11:02;33.20;53.17
68189;DHT22;66299;47.514;19.218;2023-06-22T14:13:34;33.20;53.92
68189;DHT22;66299;47.514;19.218;2023-06-22T14:16:08;33.03;55.01
68189;DHT22;66299;47.514;19.218;2023-06-22T14:18:38;32.81;54.36
68189;DHT22;66299;47.514;19.218;2023-06-22T14:21:08;33.29;53.46
68189;DHT22;66299;47.514;19.218;2023-06-22T14:23:38;32.99;55.10
68189;DHT22;66299;47.514;19.218;2023-06-22T14:26:08;33.33;53.43
68189;DHT22;66299;47.514;19.218;2023-06-22T14:28:37;33.05;52.93
68189;DHT22;66299;47.514;19.218;2023-06-22T14:31:07;33.15;53.38
68189;DHT22;66299;47.514;19.218;2023-06-22T14:33:37;33.33;54.06
68189;DHT22;66299;47.514;19.218;2023-06-22T14:36:07;33.16;53.27
68189;DHT22;66299;47.514;19.218;2023-06-22T14:38:38;32.99;52.30
68189;DHT22;66299;47.514;19.218;2023-06-22T14:41:08;32.92;52.76
68189;DHT22;66299;47.514;19.218;2023-06-22T14:43:44;33.25;51.73
68189;DHT22;66299;47.514;19.218;2023-06-22T14:46:15;33.18;52.11
68189;DHT22;66299;47.514;19.218;2023-06-22T14:48:44;33.37;52.80
68189;DHT22;66299;47.514;19.218;2023-06-22T14:51:13;33.23;53.40
68189;DHT22;66299;47.514;19.218;2023-06-22T14:53:44;33.39;51.63
68189;DHT22;66299;47.514;19.218;2023-06-22T14:56:15;32.96;52.96
68189;DHT22;66299;47.514;19.218;2023-06-22T14:58:44;32.95;54.66
68189;DHT22;66299;47.514;19.218;2023-06-22T15:01:16;33.23;54.24
68189;DHT22;66299;47.514;19.218;2023-06-22T15:03:46;33.12;53.52
68189;DHT22;66299;47.514;19.218;2023-06-22T15:06:15;33.15;54.20
68189;DHT22;66299;47.514;19.218;2023-06-22T15:08:45;33.25;53.58
68189;DHT22;66299;47.514;19.218;2023-06-22T15:11:15;33.08;53.46
68189;DHT22;66299;47.514;19.218;2023-06-22T15:13:44;33.06;53.62
68189;DHT22;66299;47.514;19.218;2023-06-22T15:16:13;33.19;54.18
68189;DHT22;66299;47.514;19.218;2023-06-22T15:18:42;33.09;54.52
68189;DHT22;66299;47.514;19.218;2023-06-22T15:21:12;33.05;56.01
68189;DHT22;66299;47.514;19.218;2023-06-22T15:23:40;32.96;53.80
68189;DHT22;66299;47.514;19.218;2023-06-22T15:26:09;32.82;54.12
68189;DHT22;66299;47.514;19.218;2023-06-22T15:28:39;32.57;54.44
68189;DHT22;66299;47.514;19.218;2023-06-22T15:31:07;32.74;53.73
68189;DHT22;66299;47.514;19.218;2023-06-22T15:33:36;32.64;54.12
68189;DHT22;66299;47.514;19.218;2023-06-22T15:36:04;32.74;55.00
68189;DHT22;66299;47.514;19.218;2023-06-22T15:38:34;32.83;53.55
68189;DHT22;66299;47.514;19.218;2023-06-22T15:41:02;32.69;53.26
68189;DHT22;66299;47.514;19.218;2023-06-22T15:43:30;32.65;54.16
68189;DHT22;66299;47.514;19.218;2023-06-22T15:46:00;32.62;54.99
68189;DHT22;66299;47.514;19.218;2023-06-22T15:48:29;32.42;55.96
68189;DHT22;66299;47.514;19.218;2023-06-22T15:50:57;32.24;55.83
68189;DHT22;66299;47.514;19.218;2023-06-22T15:53:26;32.31;54.38
68189;DHT22;66299;47.514;19.218;2023-06-22T15:55:54;32.51;55.87
68189;DHT22;66299;47.514;19.218;2023-06-22T15:58:22;32.45;56.24
68189;DHT22;66299;47.514;19.218;2023-06-22T16:00:54;32.16;57.34
68189;DHT22;66299;47.514;19.218;2023-06-22T16:03:24;32.28;54.85
68189;DHT22;66299;47.514;19.218;2023-06-22T16:05:52;32.35;55.67
68189;DHT22;66299;47.514;19.218;2023-06-22T16:08:21;32.17;56.21
68189;DHT22;66299;47.514;19.218;2023-06-22T16:10:52;32.10;56.25
68189;DHT22;66299;47.514;19.218;2023-06-22T16:13:21;32.03;55.02
68189;DHT22;66299;47.514;19.218;2023-06-22T16:15:50;31.98;56.76
68189;DHT22;66299;47.514;19.218;2023-06-22T16:18:19;31.98;56.39
68189;DHT22;66299;47.514;19.218;2023-06-22T16:20:49;31.97;56.47
68189;DHT22;66299;47.514;19.218;2023-06-22T16:23:18;31.98;57.23
68189;DHT22;66299;47.514;19.218;2023-06-22T16:25:48;31.79;57.29
68189;DHT22;66299;47.514;19.218;2023-06-22T16:28:16;31.98;55.76
68189;DHT22;66299;47.514;19.218;2023-06-22T16:30:45;31.85;57.35
68189;DHT22;66299;47.514;19.218;2023-06-22T16:33:13;31.98;54.61
68189;DHT22;66299;47.514;19.218;2023-06-22T16:35:42;31.86;55.70
68189;DHT22;66299;47.514;19.218;2023-06-22T16:38:12;31.69;57.45
68189;DHT22;66299;47.514;19.218;2023-06-22T16:40:41;31.69;55.36
68189;DHT22;66299;47.514;19.218;2023-06-22T16:43:09;31.63;56.16
68189;DHT22;66299;47.514;19.218;2023-06-22T16:45:37;31.66;57.43
68189;DHT22;66299;47.514;19.218;2023-06-22T16:48:06;31.63;57.25
68189;DHT22;66299;47.514;19.218;2023-06-22T16:50:34;31.61;57.17
68189;DHT22;66299;47.514;19.218;2023-06-22T16:53:02;31.62;57.69
68189;DHT22;66299;47.514;19.218;2023-06-22T16:55:34;31.45;58.27
68189;DHT22;66299;47.514;19.218;2023-06-22T16:58:04;31.49;57.64
68189;DHT22;66299;47.514;19.218;2023-06-22T17:00:35;31.39;58.36
68189;DHT22;66299;47.514;19.218;2023-06-22T17:03:06;31.27;59.20
68189;DHT22;66299;47.514;19.218;2023-06-22T17:05:39;31.29;57.86
68189;DHT22;66299;47.514;19.218;2023-06-22T17:08:12;31.29;57.91
68189;DHT22;66299;47.514;19.218;2023-06-22T17:10:44;31.08;59.44
68189;DHT22;66299;47.514;19.218;2023-06-22T17:13:13;30.98;60.11
68189;DHT22;66299;47.514;19.218;2023-06-22T17:15:47;30.92;60.25
68189;DHT22;66299;47.514;19.218;2023-06-22T17:18:16;30.73;62.13
68189;DHT22;66299;47.514;19.218;2023-06-22T17:20:45;30.67;61.08
68189;DHT22;66299;47.514;19.218;2023-06-22T17:23:14;30.79;60.30
68189;DHT22;66299;47.514;19.218;2023-06-22T17:25:45;30.66;61.23
68189;DHT22;66299;47.514;19.218;2023-06-22T17:28:16;30.63;60.40
68189;DHT22;66299;47.514;19.218;2023-06-22T17:30:46;30.52;61.89
68189;DHT22;66299;47.514;19.218;2023-06-22T17:33:15;30.40;62.44
68189;DHT22;66299;47.514;19.218;2023-06-22T17:35:47;30.15;63.96
68189;DHT22;66299;47.514;19.218;2023-06-22T17:38:21;29.94;64.79
68189;DHT22;66299;47.514;19.218;2023-06-22T17:40:51;29.75;65.75
68189;DHT22;66299;47.514;19.218;2023-06-22T17:43:20;29.71;67.35
68189;DHT22;66299;47.514;19.218;2023-06-22T17:45:48;29.60;68.13
68189;DHT22;66299;47.514;19.218;2023-06-22T17:48:19;29.47;68.87
68189;DHT22;66299;47.514;19.218;2023-06-22T17:50:50;29.29;70.01
68189;DHT22;66299;47.514;19.218;2023-06-22T17:53:19;29.20;70.49
68189;DHT22;66299;47.514;19.218;2023-06-22T17:55:53;29.13;70.55
68189;DHT22;66299;47.514;19.218;2023-06-22T17:58:22;29.09;71.85
68189;DHT22;66299;47.514;19.218;2023-06-22T18:00:50;28.88;72.03
68189;DHT22;66299;47.514;19.218;2023-06-22T18:03:23;28.75;71.43
68189;DHT22;66299;47.514;19.218;2023-06-22T18:05:54;28.68;71.85
68189;DHT22;66299;47.514;19.218;2023-06-22T18:08:25;28.68;71.56
68189;DHT22;66299;47.514;19.218;2023-06-22T18:10:56;28.62;72.11
68189;DHT22;66299;47.514;19.218;2023-06-22T18:13:30;28.52;72.11
68189;DHT22;66299;47.514;19.218;2023-06-22T18:15:59;28.44;72.35
68189;DHT22;66299;47.514;19.218;2023-06-22T18:18:28;28.40;72.42
68189;DHT22;66299;47.514;19.218;2023-06-22T18:21:00;28.24;73.39
68189;DHT22;66299;47.514;19.218;2023-06-22T18:23:34;28.18;73.82
68189;DHT22;66299;47.514;19.218;2023-06-22T18:26:05;28.04;73.91
68189;DHT22;66299;47.514;19.218;2023-06-22T18:28:36;27.96;73.71
68189;DHT22;66299;47.514;19.218;2023-06-22T18:31:06;27.81;74.67
68189;DHT22;66299;47.514;19.218;2023-06-22T18:33:35;27.70;75.36
68189;DHT22;66299;47.514;19.218;2023-06-22T18:36:04;27.65;75.34
68189;DHT22;66299;47.514;19.218;2023-06-22T18:38:33;27.61;75.18
68189;DHT22;66299;47.514;19.218;2023-06-22T18:41:02;27.51;75.24
68189;DHT22;66299;47.514;19.218;2023-06-22T18:43:37;27.46;74.83
68189;DHT22;66299;47.514;19.218;2023-06-22T18:46:34;27.37;75.56
68189;DHT22;66299;47.514;19.218;2023-06-22T18:49:10;27.23;76.50
68189;DHT22;66299;47.514;19.218;2023-06-22T18:51:55;27.10;76.55
68189;DHT22;66299;47.514;19.218;2023-06-22T18:54:32;26.98;77.91
68189;DHT22;66299;47.514;19.218;2023-06-22T18:57:12;26.88;78.34
68189;DHT22;66299;47.514;19.218;2023-06-22T18:59:49;26.72;79.02
68189;DHT22;66299;47.514;19.218;2023-06-22T19:02:40;26.64;79.08
68189;DHT22;66299;47.514;19.218;2023-06-22T19:05:17;26.56;79.13
68189;DHT22;66299;47.514;19.218;2023-06-22T19:07:58;26.52;78.67
68189;DHT22;66299;47.514;19.218;2023-06-22T19:10:30;26.48;78.39
68189;DHT22;66299;47.514;19.218;2023-06-22T19:13:20;26.42;78.45
68189;DHT22;66299;47.514;19.218;2023-06-22T19:16:01;26.36;78.33
68189;DHT22;66299;47.514;19.218;2023-06-22T19:18:32;26.35;78.65
68189;DHT22;66299;47.514;19.218;2023-06-22T19:21:06;26.32;78.32
68189;DHT22;66299;47.514;19.218;2023-06-22T19:23:36;26.29;78.38
68189;DHT22;66299;47.514;19.218;2023-06-22T19:26:07;26.25;78.21
68189;DHT22;66299;47.514;19.218;2023-06-22T19:28:44;26.19;79.07
68189;DHT22;66299;47.514;19.218;2023-06-22T19:31:16;26.21;77.92
68189;DHT22;66299;47.514;19.218;2023-06-22T19:33:59;26.19;78.20
68189;DHT22;66299;47.514;19.218;2023-06-22T19:36:40;26.29;77.26
68189;DHT22;66299;47.514;19.218;2023-06-22T19:39:10;26.22;77.37
68189;DHT22;66299;47.514;19.218;2023-06-22T19:41:39;26.24;77.63
68189;DHT22;66299;47.514;19.218;2023-06-22T19:44:10;26.19;77.79
68189;DHT22;66299;47.514;19.218;2023-06-22T19:46:41;26.21;78.38
68189;DHT22;66299;47.514;19.218;2023-06-22T19:49:15;26.14;78.27
68189;DHT22;66299;47.514;19.218;2023-06-22T19:51:44;26.09;78.39
68189;DHT22;66299;47.514;19.218;2023-06-22T19:54:13;26.12;78.30
68189;DHT22;66299;47.514;19.218;2023-06-22T19:56:43;26.12;77.66
68189;DHT22;66299;47.514;19.218;2023-06-22T19:59:12;26.06;78.53
68189;DHT22;66299;47.514;19.218;2023-06-22T20:01:43;26.02;79.08
68189;DHT22;66299;47.514;19.218;2023-06-22T20:04:12;25.92;78.93
68189;DHT22;66299;47.514;19.218;2023-06-22T20:06:59;25.82;80.03
68189;DHT22;66299;47.514;19.218;2023-06-22T20:09:28;25.82;79.61
68189;DHT22;66299;47.514;19.218;2023-06-22T20:11:59;25.77;79.21
68189;DHT22;66299;47.514;19.218;2023-06-22T20:14:29;25.75;79.45
68189;DHT22;66299;47.514;19.218;2023-06-22T20:17:00;25.64;80.15
68189;DHT22;66299;47.514;19.218;2023-06-22T20:19:37;25.57;80.31
68189;DHT22;66299;47.514;19.218;2023-06-22T20:22:10;25.50;81.03
68189;DHT22;66299;47.514;19.218;2023-06-22T20:24:39;25.44;81.24
68189;DHT22;66299;47.514;19.218;2023-06-22T20:27:10;25.44;81.16
68189;DHT22;66299;47.514;19.218;2023-06-22T20:29:42;25.44;80.91
68189;DHT22;66299;47.514;19.218;2023-06-22T20:32:13;25.44;81.17
68189;DHT22;66299;47.514;19.218;2023-06-22T20:34:44;25.34;81.58
68189;DHT22;66299;47.514;19.218;2023-06-22T20:37:17;25.30;82.06
68189;DHT22;66299;47.514;19.218;2023-06-22T20:39:50;25.20;82.25
68189;DHT22;66299;47.514;19.218;2023-06-22T20:42:19;25.15;82.33
68189;DHT22;66299;47.514;19.218;2023-06-22T20:44:47;25.06;82.73
68189;DHT22;66299;47.514;19.218;2023-06-22T20:47:21;25.05;82.45
68189;DHT22;66299;47.514;19.218;2023-06-22T20:49:50;25.04;82.69
68189;DHT22;66299;47.514;19.218;2023-06-22T20:52:20;24.99;83.16
68189;DHT22;66299;47.514;19.218;2023-06-22T20:54:50;24.92;83.59
68189;DHT22;66299;47.514;19.218;2023-06-22T20:57:21;24.86;83.81
68189;DHT22;66299;47.514;19.218;2023-06-22T20:59:54;24.84;83.76
68189;DHT22;66299;47.514;19.218;2023-06-22T21:02:24;24.82;83.85
68189;DHT22;66299;47.514;19.218;2023-06-22T21:04:55;24.98;83.40
68189;DHT22;66299;47.514;19.218;2023-06-22T21:07:24;24.98;83.16
68189;DHT22;66299;47.514;19.218;2023-06-22T21:09:53;25.05;83.02
68189;DHT22;66299;47.514;19.218;2023-06-22T21:12:23;25.06;82.40
68189;DHT22;66299;47.514;19.218;2023-06-22T21:14:52;25.19;82.64